createdAt,value
2022-08-04T00:02:49.940Z,98542.5
2022-08-04T00:08:24.665Z,98541.7
2022-08-04T00:14:04.586Z,98537.1
2022-08-04T00:19:40.361Z,98535.4
2022-08-04T00:25:15.465Z,98522.4
2022-08-04T00:30:54.360Z,98519.3
2022-08-04T00:36:31.489Z,98514.1
2022-08-04T00:42:07.381Z,98520.4
2022-08-04T00:47:42.243Z,98522.3
2022-08-04T00:53:17.917Z,98521.9
2022-08-04T00:58:52.942Z,98520.7
2022-08-04T01:04:27.932Z,98522.6
2022-08-04T01:10:02.865Z,98515.7
2022-08-04T01:16:01.464Z,98512.8
2022-08-04T01:21:37.481Z,98504.3
2022-08-04T01:27:14.402Z,98498.8
2022-08-04T01:32:49.409Z,98490.8
2022-08-04T01:38:24.455Z,98484.5
2022-08-04T01:44:00.655Z,98479.5
2022-08-04T01:49:41.628Z,98477.4
2022-08-04T01:55:16.357Z,98474.5
2022-08-04T02:00:57.311Z,98460.2
2022-08-04T02:06:32.975Z,98450.8
2022-08-04T02:12:16.883Z,98448.3
2022-08-04T02:18:13.501Z,98430.7
2022-08-04T02:23:46.334Z,98430.5
2022-08-04T02:29:21.066Z,98430.1
2022-08-04T02:34:55.859Z,98433.6
2022-08-04T02:40:30.729Z,98433
2022-08-04T02:46:18.712Z,98440.7
2022-08-04T02:51:53.451Z,98438.9
2022-08-04T02:57:28.498Z,98440.4
2022-08-04T03:03:07.572Z,98438.3
2022-08-04T03:08:42.383Z,98445.7
2022-08-04T03:14:17.351Z,98449.2
2022-08-04T03:19:52.212Z,98447.9
2022-08-04T03:25:26.992Z,98459.2
2022-08-04T03:31:05.362Z,98460.2
2022-08-04T03:36:40.146Z,98460.4
2022-08-04T03:42:16.634Z,98466.4
2022-08-04T03:47:51.695Z,98467.2
2022-08-04T03:53:26.526Z,98461.4
2022-08-04T03:59:02.564Z,98456.7
2022-08-04T04:04:40.476Z,98451.4
2022-08-04T04:10:29.203Z,98455.3
2022-08-04T04:16:04.138Z,98461.4
2022-08-04T04:21:40.370Z,98462.6
2022-08-04T04:27:16.183Z,98459.8
2022-08-04T04:32:51.089Z,98456.5
2022-08-04T04:38:25.955Z,98459.6
2022-08-04T04:44:01.126Z,98467.6
2022-08-04T04:49:37.202Z,98468
2022-08-04T04:55:12.331Z,98473.1
2022-08-04T05:00:47.145Z,98474.5
2022-08-04T05:06:22.173Z,98486.9
2022-08-04T05:11:57.797Z,98484.7
2022-08-04T05:17:55.573Z,98491.1
2022-08-04T05:23:28.336Z,98494.7
2022-08-04T05:29:03.507Z,98499.2
2022-08-04T05:34:38.309Z,98504.7
2022-08-04T05:40:13.263Z,98509
2022-08-04T05:45:49.294Z,98509.7
2022-08-04T05:51:24.148Z,98514.3
2022-08-04T05:56:59.019Z,98513.3
2022-08-04T06:02:36.725Z,98512
2022-08-04T06:08:14.465Z,98516.9
2022-08-04T06:13:51.632Z,98516.5
2022-08-04T06:20:23.812Z,98515.5
2022-08-04T06:26:05.447Z,98519.6
2022-08-04T06:32:38.722Z,98520.9
2022-08-04T06:38:21.611Z,98519.5
2022-08-04T06:43:56.615Z,98525.9
2022-08-04T06:51:39.068Z,98524.9
2022-08-04T06:57:25.035Z,98524.7
2022-08-04T07:02:59.777Z,98524.3
2022-08-04T07:08:34.714Z,98529.4
2022-08-04T07:14:10.514Z,98526.8
2022-08-04T07:19:45.581Z,98526.9
2022-08-04T07:26:11.481Z,98527.3
2022-08-04T07:31:48.974Z,98529.3
2022-08-04T07:37:40.429Z,98522
2022-08-04T07:43:17.803Z,98528
2022-08-04T07:49:01.820Z,98530.4
2022-08-04T07:54:36.661Z,98527.7
2022-08-04T08:00:12.984Z,98527.7
2022-08-04T08:06:39.960Z,98527.9
2022-08-04T08:12:52.799Z,98529.8
2022-08-04T08:18:50.814Z,98520.2
2022-08-04T08:24:23.535Z,98520.2
2022-08-04T08:29:58.680Z,98519.6
2022-08-04T08:35:55.086Z,98515.9
2022-08-04T08:41:30.248Z,98514.4
2022-08-04T08:47:05.091Z,98520.4
2022-08-04T08:53:03.702Z,98517.4
2022-08-04T08:58:39.867Z,98515
2022-08-04T09:04:31.794Z,98512.9
2022-08-04T09:10:08.001Z,98512.7
2022-08-04T09:15:42.898Z,98509.8
2022-08-04T09:21:18.655Z,98510.7
2022-08-04T09:27:01.088Z,98507.9
2022-08-04T09:32:35.910Z,98510.1
2022-08-04T09:38:10.749Z,98514.5
2022-08-04T09:45:04.139Z,98510.4
2022-08-04T09:50:51.292Z,98511.5
2022-08-04T09:56:26.107Z,98510.5
2022-08-04T10:02:01.071Z,98511.9
2022-08-04T10:07:35.924Z,98517.4
2022-08-04T10:13:11.065Z,98516.3
2022-08-04T10:19:09.013Z,98510.7
2022-08-04T10:24:42.982Z,98504.1
2022-08-04T10:30:17.750Z,98505.1
2022-08-04T10:35:52.357Z,98508.1
2022-08-04T10:41:28.355Z,98505.4
2022-08-04T10:47:03.463Z,98501
2022-08-04T10:52:38.877Z,98498.1
2022-08-04T10:58:14.776Z,98495.4
2022-08-04T11:03:49.826Z,98494.3
2022-08-04T11:09:24.775Z,98493.6
2022-08-04T11:15:00.730Z,98489.6
2022-08-04T11:20:37.591Z,98485.7
2022-08-04T11:26:12.992Z,98482.1
2022-08-04T11:31:52.692Z,98483.7
2022-08-04T11:37:28.012Z,98483.9
2022-08-04T11:43:02.846Z,98484.2
2022-08-04T11:48:37.591Z,98482.6
2022-08-04T11:54:12.485Z,98482.3
2022-08-04T11:59:47.312Z,98477.9
2022-08-04T12:05:38.105Z,98476.3
2022-08-04T12:11:13.214Z,98474.7
2022-08-04T12:17:10.141Z,98471.4
2022-08-04T12:22:43.503Z,98479.6
2022-08-04T12:28:19.120Z,98476
2022-08-04T12:34:07.176Z,98471.6
2022-08-04T12:40:31.920Z,98467.2
2022-08-04T12:46:08.744Z,98461.8
2022-08-04T12:52:10.075Z,98454.1
2022-08-04T12:57:47.025Z,98450.4
2022-08-04T13:03:21.845Z,98450.7
2022-08-04T13:08:56.679Z,98451.3
2022-08-04T13:14:31.649Z,98442.7
2022-08-04T13:20:06.498Z,98443.4
2022-08-04T13:26:56.337Z,98440.9
2022-08-04T13:32:38.369Z,98438.4
2022-08-04T13:38:15.639Z,98438
2022-08-04T13:44:21.110Z,98439.1
2022-08-04T13:50:12.393Z,98437.2
2022-08-04T13:55:48.573Z,98434
2022-08-04T14:01:37.043Z,98433.5
2022-08-04T14:07:22.014Z,98438.3
2022-08-04T14:12:58.078Z,98440.4
2022-08-04T14:18:33.301Z,98454.5
2022-08-04T14:24:08.156Z,98435.6
2022-08-04T14:29:43.061Z,98425
2022-08-04T14:35:26.653Z,98417.1
2022-08-04T14:41:27.905Z,98423.3
2022-08-04T14:47:02.816Z,98412.1
2022-08-04T14:52:37.451Z,98415.3
2022-08-04T14:58:40.087Z,98400.5
2022-08-04T15:04:34.998Z,98395.4
2022-08-04T15:10:13.919Z,98375.8
2022-08-04T15:16:08.886Z,98351.6
2022-08-04T15:21:44.167Z,98361.8
2022-08-04T15:27:20.069Z,98366.3
2022-08-04T15:32:55.086Z,98377.1
2022-08-04T15:38:31.846Z,98384.2
2022-08-04T15:44:09.988Z,98379.5
2022-08-04T15:49:45.912Z,98389
2022-08-04T15:55:21.623Z,98378.3
2022-08-04T16:00:56.792Z,98361.5
2022-08-04T16:06:31.673Z,98367.2
2022-08-04T16:12:17.441Z,98361.4
2022-08-04T16:18:52.563Z,98368.8
2022-08-04T16:24:25.347Z,98360
2022-08-04T16:30:00.202Z,98376.1
2022-08-04T16:35:42.957Z,98374.9
2022-08-04T16:41:19.041Z,98366.9
2022-08-04T16:47:23.108Z,98361.3
2022-08-04T16:52:59.327Z,98362.4
2022-08-04T16:58:54.258Z,98363.2
2022-08-04T17:04:29.616Z,98350.9
2022-08-04T17:10:04.771Z,98344.5
2022-08-04T17:15:39.582Z,98287.9
2022-08-04T17:21:14.374Z,98333.2
2022-08-04T17:26:55.303Z,98324.3
2022-08-04T17:32:30.641Z,98362.8
2022-08-04T17:38:05.480Z,98291
2022-08-04T17:44:07.581Z,98290.1
2022-08-04T17:49:54.050Z,98340.8
2022-08-04T17:55:30.318Z,98350.2
2022-08-04T18:01:25.575Z,98378.6
2022-08-04T18:07:01.637Z,98408.2
2022-08-04T18:12:42.503Z,98414.7
2022-08-04T18:18:51.194Z,98406.5
2022-08-04T18:24:57.070Z,98429.4
2022-08-04T18:30:56.804Z,98433.9
2022-08-04T18:36:38.773Z,98454.9
2022-08-04T18:42:38.014Z,98509.3
2022-08-04T18:48:19.324Z,98551.4
2022-08-04T18:53:59.845Z,98586.2
2022-08-04T18:59:35.173Z,98608.7
2022-08-04T19:05:19.682Z,98640.1
2022-08-04T19:11:00.696Z,98618.9
2022-08-04T22:30:52.906Z,98752.7
2022-08-04T22:36:32.821Z,98762.6
2022-08-04T22:42:13.982Z,98754.8
2022-08-04T22:47:53.895Z,98752.4
2022-08-04T22:53:29.527Z,98761
2022-08-04T22:59:11.890Z,98748.2
2022-08-04T23:04:54.593Z,98744.6
2022-08-04T23:10:29.704Z,98738.1
2022-08-04T23:16:10.892Z,98738.8
2022-08-04T23:22:02.338Z,98749.8
2022-08-04T23:27:52.252Z,98741.5
2022-08-04T23:33:52.915Z,98734
2022-08-04T23:40:34.814Z,98724.1
2022-08-04T23:46:28.033Z,98721.6
2022-08-04T23:52:04.873Z,98712.3
2022-08-04T23:58:28.377Z,98703.8
